createdAt,value
2018-01-19T00:00:00.426Z,38.30
2018-01-19T00:02:28.038Z,31.97
2018-01-19T00:04:55.566Z,21.47
2018-01-19T00:07:23.274Z,22.83
2018-01-19T00:09:50.840Z,16.73
2018-01-19T00:12:18.366Z,18.90
2018-01-19T00:14:46.121Z,18.93
2018-01-19T00:17:13.659Z,22.37
2018-01-19T00:19:41.189Z,18.63
2018-01-19T00:22:08.976Z,16.87
2018-01-19T00:24:36.549Z,17.20
2018-01-19T00:27:04.210Z,16.80
2018-01-19T00:29:31.742Z,20.17
2018-01-19T00:31:59.318Z,20.90
2018-01-19T00:34:26.865Z,21.23
2018-01-19T00:36:54.403Z,19.73
2018-01-19T00:39:22.103Z,18.97
2018-01-19T00:41:49.794Z,15.93
2018-01-19T00:44:17.434Z,15.80
2018-01-19T00:46:44.978Z,14.27
2018-01-19T00:49:12.675Z,12.87
2018-01-19T00:51:40.254Z,13.23
2018-01-19T00:54:07.791Z,14.80
2018-01-19T00:56:35.354Z,16.23
2018-01-19T00:59:02.894Z,18.67
2018-01-19T01:01:30.421Z,16.50
2018-01-19T01:03:57.973Z,15.33
2018-01-19T01:06:25.510Z,17.90
2018-01-19T01:08:53.059Z,15.70
2018-01-19T01:11:20.594Z,17.70
2018-01-19T01:13:48.178Z,15.83
2018-01-19T01:16:15.734Z,17.12
2018-01-19T01:18:43.262Z,18.43
2018-01-19T01:21:10.834Z,19.05
2018-01-19T01:23:38.374Z,73.33
2018-01-19T01:26:05.925Z,75.40
2018-01-19T01:28:33.473Z,70.65
2018-01-19T01:31:01.067Z,56.93
2018-01-19T01:33:28.609Z,55.07
2018-01-19T01:35:56.405Z,21.63
2018-01-19T01:38:23.947Z,10.73
2018-01-19T01:40:51.482Z,7.60
2018-01-19T01:43:19.024Z,5.60
2018-01-19T01:45:46.545Z,4.40
2018-01-19T01:48:14.130Z,4.47
2018-01-19T01:50:41.654Z,4.33
2018-01-19T01:53:09.331Z,4.70
2018-01-19T01:55:36.951Z,4.80
2018-01-19T01:58:04.666Z,5.10
2018-01-19T02:00:32.239Z,5.67
2018-01-19T02:02:59.762Z,5.33
2018-01-19T02:05:27.346Z,14.40
2018-01-19T02:07:55.136Z,15.53
2018-01-19T02:10:22.682Z,18.23
2018-01-19T02:12:50.346Z,12.77
2018-01-19T02:15:17.903Z,15.20
2018-01-19T02:17:45.462Z,13.48
2018-01-19T02:20:13.086Z,11.00
2018-01-19T02:22:40.686Z,6.68
2018-01-19T02:25:08.462Z,5.30
2018-01-19T02:27:36.082Z,5.33
2018-01-19T02:30:03.800Z,3.83
2018-01-19T02:32:31.333Z,3.70
2018-01-19T02:34:58.906Z,3.80
2018-01-19T02:37:26.426Z,5.17
2018-01-19T02:39:53.956Z,4.87
2018-01-19T02:42:21.554Z,5.60
2018-01-19T02:44:49.304Z,6.03
2018-01-19T02:47:16.864Z,6.87
2018-01-19T02:49:44.494Z,8.73
2018-01-19T02:52:12.259Z,9.07
2018-01-19T02:54:39.877Z,9.77
2018-01-19T02:57:07.410Z,23.17
2018-01-19T02:59:34.987Z,49.67
2018-01-19T03:02:02.685Z,36.60
2018-01-19T03:04:30.450Z,28.43
2018-01-19T03:06:57.981Z,36.17
2018-01-19T03:09:25.682Z,19.25
2018-01-19T03:11:53.227Z,14.27
2018-01-19T03:14:20.918Z,9.07
2018-01-19T03:16:48.470Z,10.00
2018-01-19T03:19:16.022Z,10.98
2018-01-19T03:21:43.670Z,9.60
2018-01-19T03:24:11.218Z,9.93
2018-01-19T03:26:38.906Z,12.13
2018-01-19T03:29:06.466Z,17.47
2018-01-19T03:31:34.241Z,13.93
2018-01-19T03:34:01.960Z,12.30
2018-01-19T03:36:29.505Z,12.48
2018-01-19T03:38:57.035Z,7.00
2018-01-19T03:41:24.716Z,11.27
2018-01-19T03:43:52.314Z,12.70
2018-01-19T03:46:20.024Z,14.45
2018-01-19T03:48:47.658Z,16.03
2018-01-19T03:51:15.242Z,20.87
2018-01-19T03:53:43.002Z,22.83
2018-01-19T03:56:10.542Z,21.57
2018-01-19T03:58:38.130Z,20.57
2018-01-19T04:01:05.673Z,18.53
2018-01-19T04:03:33.266Z,19.13
2018-01-19T04:06:00.895Z,26.00
2018-01-19T04:08:28.608Z,31.10
2018-01-19T04:10:56.326Z,15.60
2018-01-19T04:13:23.945Z,26.70
2018-01-19T04:15:51.490Z,22.23
2018-01-19T04:18:19.027Z,10.43
2018-01-19T04:20:46.659Z,10.70
2018-01-19T04:23:14.194Z,10.83
2018-01-19T04:25:41.730Z,10.17
2018-01-19T04:28:09.274Z,7.83
2018-01-19T04:30:36.810Z,9.30
2018-01-19T04:33:04.376Z,9.13
2018-01-19T04:35:32.004Z,7.20
2018-01-19T04:37:59.594Z,7.63
2018-01-19T04:40:27.176Z,10.27
2018-01-19T04:42:54.714Z,10.27
2018-01-19T04:45:22.270Z,28.23
2018-01-19T04:47:49.892Z,131.17
2018-01-19T04:50:17.450Z,101.13
2018-01-19T04:52:45.228Z,59.87
2018-01-19T04:55:12.826Z,27.80
2018-01-19T04:57:40.666Z,12.97
2018-01-19T05:00:08.482Z,19.37
2018-01-19T05:02:36.056Z,19.27
2018-01-19T05:05:03.819Z,16.30
2018-01-19T05:07:31.939Z,20.60
2018-01-19T05:09:59.483Z,20.97
2018-01-19T05:12:27.082Z,20.30
2018-01-19T05:14:54.682Z,18.65
2018-01-19T05:17:22.317Z,14.70
2018-01-19T05:19:50.031Z,11.60
2018-01-19T05:22:17.562Z,9.53
2018-01-19T05:24:45.118Z,9.38
2018-01-19T05:27:12.674Z,10.80
2018-01-19T05:29:40.499Z,7.10
2018-01-19T05:32:08.318Z,5.90
2018-01-19T05:34:35.861Z,6.40
2018-01-19T05:37:03.653Z,7.90
2018-01-19T05:39:31.190Z,11.68
2018-01-19T05:41:58.727Z,7.73
2018-01-19T05:44:26.258Z,6.10
2018-01-19T05:46:54.130Z,8.35
2018-01-19T05:49:21.678Z,7.30
2018-01-19T05:51:49.272Z,6.83
2018-01-19T05:54:16.879Z,15.60
2018-01-19T05:56:44.479Z,38.70
2018-01-19T05:59:12.213Z,21.80
2018-01-19T06:01:39.931Z,20.70
2018-01-19T06:04:07.752Z,35.35
2018-01-19T06:06:35.290Z,29.10
2018-01-19T06:09:02.838Z,39.60
2018-01-19T06:11:30.378Z,38.03
2018-01-19T06:13:58.028Z,42.30
2018-01-19T06:16:25.574Z,38.43
2018-01-19T06:18:53.166Z,30.30
2018-01-19T06:21:20.822Z,33.13
2018-01-19T06:23:48.491Z,46.50
2018-01-19T06:26:16.031Z,39.57
2018-01-19T06:28:43.578Z,73.63
2018-01-19T06:31:11.127Z,59.60
2018-01-19T06:33:38.767Z,95.47
2018-01-19T06:36:06.441Z,90.33
2018-01-19T06:38:34.026Z,83.23
2018-01-19T06:41:01.562Z,61.67
2018-01-19T06:43:29.242Z,99.43
2018-01-19T06:45:56.951Z,152.50
2018-01-19T06:48:25.495Z,73.07
2018-01-19T06:50:53.051Z,54.10
2018-01-19T06:53:20.619Z,54.90
2018-01-19T06:55:48.224Z,37.43
2018-01-19T06:58:15.944Z,31.83
2018-01-19T07:00:43.499Z,31.13
2018-01-19T07:03:11.077Z,46.27
2018-01-19T07:05:38.610Z,50.60
2018-01-19T07:08:06.154Z,21.30
2018-01-19T07:10:33.824Z,19.80
2018-01-19T07:13:01.462Z,20.57
2018-01-19T07:15:29.108Z,30.40
2018-01-19T07:17:56.634Z,40.33
2018-01-19T07:20:24.226Z,33.30
2018-01-19T07:22:51.990Z,75.17
2018-01-19T07:25:20.050Z,43.20
2018-01-19T07:27:47.932Z,32.90
2018-01-19T07:30:15.514Z,33.70
2018-01-19T07:32:43.046Z,30.90
2018-01-19T07:35:10.578Z,27.50
2018-01-19T07:37:38.137Z,56.73
2018-01-19T07:40:05.930Z,74.40
2018-01-19T07:42:33.674Z,78.97
2018-01-19T07:45:01.323Z,103.03
2018-01-19T07:47:28.912Z,73.80
2018-01-19T07:49:56.795Z,44.47
2018-01-19T07:52:24.338Z,28.50
2018-01-19T07:54:51.892Z,29.30
2018-01-19T07:57:19.438Z,29.50
2018-01-19T07:59:47.094Z,32.60
2018-01-19T08:02:14.636Z,30.63
2018-01-19T08:04:42.335Z,29.33
2018-01-19T08:07:10.046Z,20.83
2018-01-19T08:09:37.602Z,41.37
2018-01-19T08:12:05.266Z,26.30
2018-01-19T08:14:32.802Z,14.57
2018-01-19T08:17:00.346Z,14.53
2018-01-19T08:19:28.034Z,22.17
2018-01-19T08:21:55.706Z,8.30
2018-01-19T08:24:23.268Z,10.10
2018-01-19T08:26:50.810Z,28.20
2018-01-19T08:29:18.363Z,8.73
2018-01-19T08:31:46.015Z,23.70
2018-01-19T08:34:13.613Z,9.93
2018-01-19T08:36:41.150Z,21.77
2018-01-19T08:39:08.734Z,21.90
2018-01-19T08:41:36.274Z,21.17
2018-01-19T08:44:03.818Z,21.87
2018-01-19T08:46:31.436Z,17.03
2018-01-19T08:48:58.993Z,9.03
2018-01-19T08:51:26.575Z,15.20
2018-01-19T08:53:54.383Z,9.67
2018-01-19T08:56:21.927Z,15.20
2018-01-19T08:58:49.627Z,68.00
2018-01-19T09:01:17.192Z,20.67
2018-01-19T09:03:44.790Z,14.47
2018-01-19T09:06:12.346Z,74.77
2018-01-19T09:08:40.092Z,10.57
2018-01-19T09:11:07.811Z,18.50
2018-01-19T09:13:35.419Z,16.40
2018-01-19T09:16:03.105Z,12.73
2018-01-19T09:18:30.637Z,11.53
2018-01-19T09:20:58.222Z,11.03
2018-01-19T09:23:25.759Z,33.83
2018-01-19T09:25:53.499Z,16.33
2018-01-19T09:28:21.212Z,14.00
2018-01-19T09:30:48.811Z,18.47
2018-01-19T09:33:16.479Z,11.67
2018-01-19T09:35:44.132Z,25.00
2018-01-19T09:38:11.712Z,8.83
2018-01-19T09:40:39.627Z,24.30
2018-01-19T09:43:07.162Z,11.60
2018-01-19T09:45:34.917Z,11.17
2018-01-19T09:48:02.769Z,11.07
2018-01-19T09:50:30.366Z,7.53
2018-01-19T09:52:57.966Z,5.80
2018-01-19T09:55:25.573Z,14.37
2018-01-19T09:57:53.113Z,7.27
2018-01-19T10:00:20.651Z,11.67
2018-01-19T10:02:48.295Z,10.20
2018-01-19T10:05:16.007Z,11.33
2018-01-19T10:07:44.185Z,9.00
2018-01-19T10:10:11.941Z,8.23
2018-01-19T10:12:39.634Z,12.27
2018-01-19T10:15:07.171Z,6.87
2018-01-19T10:17:34.799Z,7.47
2018-01-19T10:20:02.358Z,37.87
2018-01-19T10:22:29.950Z,71.30
2018-01-19T10:24:57.655Z,11.07
2018-01-19T10:27:25.365Z,22.63
2018-01-19T10:29:53.094Z,11.17
2018-01-19T10:32:20.830Z,10.47
2018-01-19T10:34:48.621Z,10.60
2018-01-19T10:37:16.173Z,9.83
2018-01-19T10:39:43.747Z,10.87
2018-01-19T10:42:11.290Z,11.50
2018-01-19T10:44:38.826Z,14.07
2018-01-19T10:47:06.371Z,15.67
2018-01-19T10:49:33.980Z,15.63
2018-01-19T10:52:01.578Z,12.60
2018-01-19T10:54:29.115Z,12.83
2018-01-19T10:56:56.650Z,13.20
2018-01-19T10:59:25.392Z,20.17
2018-01-19T11:01:52.935Z,14.63
2018-01-19T11:04:20.558Z,11.40
2018-01-19T11:06:48.162Z,11.63
2018-01-19T11:09:15.878Z,12.17
2018-01-19T11:11:43.482Z,10.83
2018-01-19T11:14:11.034Z,10.87
2018-01-19T11:16:38.638Z,10.83
2018-01-19T11:19:06.347Z,19.23
2018-01-19T11:21:33.931Z,10.57
2018-01-19T11:24:01.629Z,10.25
2018-01-19T11:26:29.300Z,8.90
2018-01-19T11:28:56.830Z,9.90
2018-01-19T11:31:24.406Z,20.57
2018-01-19T11:33:52.010Z,8.77
2018-01-19T11:36:19.559Z,9.23
2018-01-19T11:38:47.287Z,9.87
2018-01-19T11:41:14.822Z,8.63
2018-01-19T11:43:42.522Z,9.70
2018-01-19T11:46:10.094Z,11.33
2018-01-19T11:48:37.771Z,9.20
2018-01-19T11:51:05.326Z,9.10
2018-01-19T11:53:32.871Z,8.83
2018-01-19T11:56:00.409Z,4.87
2018-01-19T11:58:27.956Z,3.70
2018-01-19T12:00:55.543Z,2.90
2018-01-19T12:03:23.367Z,1.37
2018-01-19T12:05:51.185Z,9.97
2018-01-19T12:08:18.729Z,4.77
2018-01-19T12:10:46.263Z,4.33
2018-01-19T12:13:14.009Z,5.37
2018-01-19T12:15:41.539Z,4.00
2018-01-19T12:18:09.118Z,4.57
2018-01-19T12:20:36.790Z,9.47
2018-01-19T12:23:04.335Z,4.47
2018-01-19T12:25:32.026Z,5.10
2018-01-19T12:27:59.642Z,6.47
2018-01-19T12:30:27.198Z,6.07
2018-01-19T12:32:54.730Z,5.33
2018-01-19T12:35:22.598Z,11.33
2018-01-19T12:37:50.146Z,28.17
2018-01-19T12:40:17.719Z,26.77
2018-01-19T12:42:45.319Z,42.27
2018-01-19T12:45:13.026Z,3.30
2018-01-19T12:47:40.626Z,3.30
2018-01-19T12:50:08.397Z,15.20
2018-01-19T12:52:35.946Z,5.63
2018-01-19T12:55:03.550Z,30.60
2018-01-19T12:57:31.163Z,5.53
2018-01-19T12:59:58.977Z,3.10
2018-01-19T13:02:26.515Z,4.93
2018-01-19T13:04:54.044Z,3.23
2018-01-19T13:07:21.586Z,5.53
2018-01-19T13:09:49.135Z,4.17
2018-01-19T13:12:16.702Z,5.67
2018-01-19T13:14:44.273Z,2.90
2018-01-19T13:17:12.188Z,2.30
2018-01-19T13:19:39.799Z,5.70
2018-01-19T13:22:07.344Z,4.47
2018-01-19T13:24:34.891Z,2.70
2018-01-19T13:27:02.636Z,3.60
2018-01-19T13:29:30.250Z,12.20
2018-01-19T13:31:57.969Z,5.30
2018-01-19T13:34:25.500Z,6.00
2018-01-19T13:36:53.344Z,4.10
2018-01-19T13:39:21.062Z,5.37
2018-01-19T13:41:48.645Z,4.27
2018-01-19T13:44:16.304Z,2.30
2018-01-19T13:46:43.838Z,3.00
2018-01-19T13:49:11.398Z,8.30
2018-01-19T13:51:38.931Z,7.13
2018-01-19T13:54:06.476Z,10.80
2018-01-19T13:56:34.014Z,14.33
2018-01-19T13:59:01.705Z,11.20
2018-01-19T14:01:29.242Z,5.97
2018-01-19T14:03:56.942Z,4.17
2018-01-19T14:06:24.504Z,9.77
2018-01-19T14:08:52.176Z,55.30
2018-01-19T14:11:19.782Z,25.93
2018-01-19T14:13:47.481Z,7.40
2018-01-19T14:16:15.066Z,20.67
2018-01-19T14:18:42.606Z,22.07
2018-01-19T14:21:10.156Z,22.90
2018-01-19T14:23:37.712Z,25.53
2018-01-19T14:26:05.254Z,30.63
2018-01-19T14:28:32.831Z,51.47
2018-01-19T14:31:00.542Z,89.13
2018-01-19T14:33:28.169Z,33.90
2018-01-19T14:35:55.763Z,130.03
2018-01-19T14:38:23.390Z,62.40
2018-01-19T14:40:50.953Z,20.97
2018-01-19T14:43:18.516Z,25.73
2018-01-19T14:45:46.075Z,139.73
2018-01-19T14:48:13.650Z,114.93
2018-01-19T14:50:41.245Z,69.77
2018-01-19T14:53:08.794Z,58.87
2018-01-19T14:55:36.412Z,36.40
2018-01-19T14:58:04.018Z,40.80
2018-01-19T15:00:31.667Z,174.80
2018-01-19T15:02:59.253Z,231.67
2018-01-19T15:05:26.958Z,134.10
2018-01-19T15:07:54.551Z,134.03
2018-01-19T15:10:22.086Z,67.47
2018-01-19T15:12:49.630Z,66.73
2018-01-19T15:15:17.264Z,120.60
2018-01-19T15:17:44.805Z,85.60
2018-01-19T15:20:12.503Z,140.77
2018-01-19T15:22:40.054Z,142.03
2018-01-19T15:25:07.619Z,111.03
2018-01-19T15:27:35.251Z,88.07
2018-01-19T15:30:02.966Z,161.83
2018-01-19T15:32:30.526Z,120.43
2018-01-19T15:34:58.089Z,110.73
2018-01-19T15:37:25.708Z,84.20
2018-01-19T15:39:54.242Z,74.00
2018-01-19T15:42:21.965Z,73.70
2018-01-19T15:44:49.519Z,74.93
2018-01-19T15:47:17.215Z,85.97
2018-01-19T15:49:44.766Z,70.80
2018-01-19T15:52:12.316Z,111.87
2018-01-19T15:54:39.943Z,186.17
2018-01-19T15:57:07.762Z,97.13
2018-01-19T15:59:35.301Z,97.23
2018-01-19T16:02:02.844Z,91.37
2018-01-19T16:04:30.397Z,110.33
2018-01-19T16:06:58.020Z,486.83
2018-01-19T16:09:25.565Z,106.33
2018-01-19T16:11:53.369Z,145.60
2018-01-19T16:14:20.934Z,98.20
2018-01-19T16:16:48.526Z,147.27
2018-01-19T16:19:16.104Z,143.77
2018-01-19T16:21:43.658Z,69.37
2018-01-19T16:24:11.458Z,78.43
2018-01-19T16:26:39.078Z,83.30
2018-01-19T16:29:06.771Z,120.43
2018-01-19T16:31:34.317Z,144.33
2018-01-19T16:34:01.882Z,343.80
2018-01-19T16:36:29.444Z,135.87
2018-01-19T16:38:56.991Z,103.07
2018-01-19T16:41:24.550Z,187.97
2018-01-19T16:43:52.301Z,208.73
2018-01-19T16:46:19.922Z,201.90
2018-01-19T16:48:47.466Z,158.07
2018-01-19T16:51:15.163Z,202.13
2018-01-19T16:53:42.718Z,411.83
2018-01-19T16:56:10.449Z,147.53
2018-01-19T16:58:37.994Z,60.17
2018-01-19T17:01:05.534Z,58.90
2018-01-19T17:03:33.070Z,78.67
2018-01-19T17:06:00.626Z,178.87
2018-01-19T17:08:28.175Z,305.27
2018-01-19T17:10:55.997Z,541.13
2018-01-19T17:13:23.660Z,578.57
2018-01-19T17:15:51.461Z,537.07
2018-01-19T17:18:19.078Z,248.60
2018-01-19T17:20:46.869Z,24.53
2018-01-19T17:23:14.475Z,33.30
2018-01-19T17:25:42.009Z,56.83
2018-01-19T17:28:09.537Z,24.93
2018-01-19T17:30:37.248Z,27.33
2018-01-19T17:33:04.780Z,34.63
2018-01-19T17:35:32.371Z,27.33
2018-01-19T17:37:59.903Z,28.47
2018-01-19T17:40:27.611Z,28.33
2018-01-19T17:42:55.145Z,36.63
2018-01-19T17:45:22.674Z,39.73
2018-01-19T17:47:50.466Z,47.90
2018-01-19T17:50:17.994Z,30.27
2018-01-19T17:52:45.534Z,38.93
2018-01-19T17:55:13.078Z,32.53
2018-01-19T17:57:40.625Z,31.00
2018-01-19T18:00:08.230Z,19.70
2018-01-19T18:02:35.762Z,19.80
2018-01-19T18:05:03.494Z,18.53
2018-01-19T18:07:31.090Z,21.40
2018-01-19T18:09:58.653Z,21.47
2018-01-19T18:12:26.266Z,21.83
2018-01-19T18:14:53.826Z,24.10
2018-01-19T18:17:21.418Z,36.77
2018-01-19T18:19:48.970Z,45.27
2018-01-19T18:22:16.713Z,49.47
2018-01-19T18:24:44.430Z,39.87
2018-01-19T18:27:11.990Z,29.10
2018-01-19T18:29:39.522Z,26.53
2018-01-19T18:32:07.074Z,17.47
2018-01-19T18:34:34.606Z,10.00
2018-01-19T18:37:02.187Z,13.43
2018-01-19T18:39:29.722Z,15.40
2018-01-19T18:41:57.302Z,15.30
2018-01-19T18:44:24.975Z,16.47
2018-01-19T18:46:52.590Z,20.27
2018-01-19T18:49:20.198Z,14.33
2018-01-19T18:51:47.738Z,15.43
2018-01-19T18:54:15.270Z,16.50
2018-01-19T18:56:42.963Z,14.20
2018-01-19T18:59:10.522Z,15.90
2018-01-19T19:01:38.127Z,19.80
2018-01-19T19:04:05.721Z,19.53
2018-01-19T19:06:33.533Z,52.67
2018-01-19T19:09:01.089Z,68.27
2018-01-19T19:11:28.622Z,51.10
2018-01-19T19:13:57.282Z,45.77
2018-01-19T19:16:24.832Z,51.80
2018-01-19T19:18:52.530Z,51.10
2018-01-19T19:21:20.117Z,53.13
2018-01-19T19:23:47.658Z,57.90
2018-01-19T19:26:15.480Z,43.57
2018-01-19T19:28:43.096Z,52.53
2018-01-19T19:31:10.823Z,53.27
2018-01-19T19:33:38.370Z,52.37
2018-01-19T19:36:05.913Z,133.00
2018-01-19T19:38:33.546Z,144.10
2018-01-19T19:41:01.094Z,174.47
2018-01-19T19:43:28.696Z,208.57
2018-01-19T19:45:56.294Z,147.67
2018-01-19T19:48:23.827Z,90.97
2018-01-19T19:50:51.362Z,87.77
2018-01-19T19:53:18.914Z,63.30
2018-01-19T19:55:46.482Z,56.07
2018-01-19T19:58:14.102Z,50.50
2018-01-19T20:00:41.654Z,41.37
2018-01-19T20:03:09.182Z,32.10
2018-01-19T20:05:36.965Z,38.20
2018-01-19T20:08:04.582Z,38.60
2018-01-19T20:10:32.210Z,33.40
2018-01-19T20:13:00.025Z,31.57
2018-01-19T20:15:27.553Z,28.00
2018-01-19T20:17:55.102Z,23.50
2018-01-19T20:20:22.642Z,27.77
2018-01-19T20:22:50.390Z,25.17
2018-01-19T20:25:18.219Z,30.60
2018-01-19T20:27:46.029Z,22.73
2018-01-19T20:30:13.574Z,23.47
2018-01-19T20:32:41.362Z,24.37
2018-01-19T20:35:08.906Z,24.83
2018-01-19T20:37:36.597Z,24.87
2018-01-19T20:40:04.386Z,27.50
2018-01-19T20:42:31.974Z,46.90
2018-01-19T20:44:59.505Z,46.30
2018-01-19T20:47:27.046Z,26.80
2018-01-19T20:49:54.590Z,93.00
2018-01-19T20:52:22.305Z,26.23
2018-01-19T20:54:49.894Z,19.90
2018-01-19T20:57:17.743Z,38.53
2018-01-19T20:59:45.314Z,51.13
2018-01-19T21:02:13.030Z,81.50
2018-01-19T21:04:40.586Z,64.73
2018-01-19T21:07:08.166Z,85.43
2018-01-19T21:09:35.824Z,168.43
2018-01-19T21:12:03.378Z,156.30
2018-01-19T21:14:30.967Z,202.77
2018-01-19T21:16:58.566Z,193.10
2018-01-19T21:19:26.106Z,103.00
2018-01-19T21:21:53.653Z,147.43
2018-01-19T21:24:21.195Z,133.17
2018-01-19T21:26:48.747Z,115.10
2018-01-19T21:29:16.302Z,94.80
2018-01-19T21:31:44.089Z,77.13
2018-01-19T21:34:11.633Z,111.57
2018-01-19T21:36:39.175Z,96.43
2018-01-19T21:39:06.728Z,127.77
2018-01-19T21:41:34.274Z,79.07
2018-01-19T21:44:01.822Z,178.03
2018-01-19T21:46:29.365Z,112.90
2018-01-19T21:48:57.917Z,101.90
2018-01-19T21:51:25.734Z,67.83
2018-01-19T21:53:53.318Z,48.27
2018-01-19T21:56:20.974Z,39.97
2018-01-19T21:58:48.505Z,33.23
2018-01-19T22:01:16.050Z,62.00
2018-01-19T22:03:43.726Z,135.73
2018-01-19T22:06:11.385Z,78.57
2018-01-19T22:08:38.920Z,58.77
2018-01-19T22:11:06.578Z,44.77
2018-01-19T22:13:34.118Z,52.73
2018-01-19T22:16:01.674Z,51.30
2018-01-19T22:18:29.226Z,46.87
2018-01-19T22:20:56.762Z,40.90
2018-01-19T22:23:24.354Z,37.97
2018-01-19T22:25:51.896Z,42.57
2018-01-19T22:28:19.434Z,27.17
2018-01-19T22:30:46.970Z,20.37
2018-01-19T22:33:14.706Z,49.97
2018-01-19T22:35:42.262Z,52.13
2018-01-19T22:38:09.806Z,51.30
2018-01-19T22:40:37.381Z,48.70
2018-01-19T22:43:04.909Z,49.73
2018-01-19T22:45:32.487Z,44.17
2018-01-19T22:48:00.039Z,37.50
2018-01-19T22:50:27.582Z,42.17
2018-01-19T22:52:55.122Z,41.37
2018-01-19T22:55:22.650Z,45.30
2018-01-19T22:57:50.479Z,36.60
2018-01-19T23:00:21.046Z,34.00
2018-01-19T23:02:48.582Z,32.30
2018-01-19T23:05:16.278Z,27.77
2018-01-19T23:07:43.817Z,26.17
2018-01-19T23:10:11.398Z,25.50
2018-01-19T23:12:39.034Z,27.43
2018-01-19T23:15:06.848Z,30.90
2018-01-19T23:17:34.382Z,34.00
2018-01-19T23:20:02.186Z,36.57
2018-01-19T23:22:29.902Z,35.83
2018-01-19T23:24:57.446Z,30.10
2018-01-19T23:27:25.138Z,31.07
2018-01-19T23:29:52.762Z,20.70
2018-01-19T23:32:20.438Z,201.63
2018-01-19T23:34:47.974Z,151.77
2018-01-19T23:37:15.518Z,66.50
2018-01-19T23:39:43.328Z,38.37
2018-01-19T23:42:10.853Z,34.93
2018-01-19T23:44:38.406Z,36.00
2018-01-19T23:47:05.942Z,26.33
2018-01-19T23:49:33.658Z,24.10
2018-01-19T23:52:01.185Z,20.20
2018-01-19T23:54:28.726Z,21.10
2018-01-19T23:56:56.407Z,19.77
2018-01-19T23:59:23.952Z,33.53
